Terminal Aerodrome Forecast
Issued by NWS

Home | Current Version | Previous Version | Text Only | Print | Product List | Glossary Off
Versions: 1 2 3 4 5 6 7 8 9 10 11 12 13 14 15 16 17

000
FTUS43 KBIS 230417 AAA
TAFMOT
TAF AMD
KMOT 230417Z 2304/2324 29022G30KT P6SM VCSH SCT025 BKN060
     FM230600 31021G31KT P6SM SCT010 BKN025
     FM231400 30020G30KT P6SM BKN035
     FM231700 30020G30KT P6SM SCT050=

USA.gov is the U.S. government's official web portal to all federal, state and local government web resources and services.